PWSweather.com
Personal Weather Stations
Station Observations
AC5JC
Greenleaf Peninsula, Waco, Waco, TX 76710

Greenleaf Peninsula, WacoWaco, TX 76710

Lat: 31.565, Lon: -97.198

Elevation: 570

Station Type: Ambient WS-1400IP

http://ac5jc.dyndns.org

High Low Average
Temperature 51.3°F10.7°C 46.8°F8.2°C 48.9°F9.4°C
Dew Point 51.0°F10.6°C 46.5°F8.1°C 48.6°F9.2°C
Winds 8.8 mph 14.2 kmh 0.4 mph 0.6 kmh 4.0 mph NW6.4 kmh NW
Wind Gusts 22.4 mph36.0 kmh 2.5 mph4.0 kmh 9.0 mph14.5 kmh
Humidity 99% 99% 99%
Pressure 29.65 in1004.1 mb 29.55 in1000.7 mb -
Precipitation 0.00 in0.0 mm - -
Hour Temp Dew Point Humidity Winds Wind Gusts Pressure Precip Precip Rate Daily Precip Total
12:00 AM 46.2°F7.9°C 45.6°F7.6°C 98% 3.3 mph N5.3 kmh N 7.4 mph11.9 kmh 29.61 in1002.7 mb 0.00 in0.0 mm 0.00 in0.0 mm 0.00 in0.0 mm
12:05 AM 46.2°F7.9°C 45.9°F7.7°C 99% 4.4 mph N7.1 kmh N 9.8 mph15.8 kmh 29.61 in1002.7 mb 0.00 in0.0 mm 0.00 in0.0 mm 0.00 in0.0 mm
12:10 AM 46.2°F7.9°C 45.9°F7.7°C 99% 0.8 mph NW1.3 kmh NW 2.5 mph4.0 kmh 29.62 in1003.0 mb 0.00 in0.0 mm 0.00 in0.0 mm 0.00 in0.0 mm
12:15 AM 46.2°F7.9°C 46.0°F7.8°C 99% 2.4 mph N3.9 kmh N 4.9 mph7.9 kmh 29.61 in1002.7 mb 0.00 in0.0 mm 0.00 in0.0 mm 0.00 in0.0 mm
12:20 AM 46.4°F8.0°C 46.1°F7.8°C 99% 3.4 mph NNW5.5 kmh NNW 9.8 mph15.8 kmh 29.61 in1002.7 mb 0.00 in0.0 mm 0.00 in0.0 mm 0.00 in0.0 mm
12:25 AM 46.4°F8.0°C 46.2°F7.9°C 99% 1.7 mph NNE2.7 kmh NNE 7.4 mph11.9 kmh 29.60 in1002.4 mb 0.00 in0.0 mm 0.00 in0.0 mm 0.00 in0.0 mm
12:30 AM 46.6°F8.1°C 46.3°F7.9°C 99% 0.9 mph N1.4 kmh N 4.9 mph7.9 kmh 29.61 in1002.7 mb 0.00 in0.0 mm 0.00 in0.0 mm 0.00 in0.0 mm
12:35 AM 46.6°F8.1°C 46.4°F8.0°C 99% 3.1 mph NNW5.0 kmh NNW 7.4 mph11.9 kmh 29.60 in1002.4 mb 0.00 in0.0 mm 0.00 in0.0 mm 0.00 in0.0 mm
12:40 AM 46.8°F8.2°C 46.5°F8.1°C 99% 4.1 mph NNW6.6 kmh NNW 12.3 mph19.8 kmh 29.60 in1002.4 mb 0.00 in0.0 mm 0.00 in0.0 mm 0.00 in0.0 mm
12:45 AM 46.8°F8.2°C 46.5°F8.1°C 99% 2.3 mph NNW3.7 kmh NNW 7.4 mph11.9 kmh 29.60 in1002.4 mb 0.00 in0.0 mm 0.00 in0.0 mm 0.00 in0.0 mm
12:50 AM 46.8°F8.2°C 46.5°F8.1°C 99% 3.3 mph N5.3 kmh N 9.8 mph15.8 kmh 29.59 in1002.0 mb 0.00 in0.0 mm 0.00 in0.0 mm 0.00 in0.0 mm
12:55 AM 46.8°F8.2°C 46.5°F8.1°C 99% 4.9 mph N7.9 kmh N 12.3 mph19.8 kmh 29.59 in1002.0 mb 0.00 in0.0 mm 0.00 in0.0 mm 0.00 in0.0 mm
01:00 AM 46.8°F8.2°C 46.5°F8.1°C 99% 4.0 mph N6.4 kmh N 9.8 mph15.8 kmh 29.59 in1002.0 mb 0.00 in0.0 mm 0.00 in0.0 mm 0.00 in0.0 mm
01:05 AM 46.8°F8.2°C 46.5°F8.1°C 99% 4.9 mph N7.9 kmh N 9.8 mph15.8 kmh 29.59 in1002.0 mb 0.00 in0.0 mm 0.00 in0.0 mm 0.00 in0.0 mm
01:10 AM 46.8°F8.2°C 46.5°F8.1°C 99% 1.5 mph NW2.4 kmh NW 4.9 mph7.9 kmh 29.59 in1002.0 mb 0.00 in0.0 mm 0.00 in0.0 mm 0.00 in0.0 mm
01:15 AM 46.8°F8.2°C 46.5°F8.1°C 99% 3.1 mph NNW5.0 kmh NNW 7.4 mph11.9 kmh 29.59 in1002.0 mb 0.00 in0.0 mm 0.00 in0.0 mm 0.00 in0.0 mm
01:20 AM 46.8°F8.2°C 46.6°F8.1°C 99% 3.1 mph NE5.0 kmh NE 7.4 mph11.9 kmh 29.60 in1002.4 mb 0.00 in0.0 mm 0.00 in0.0 mm 0.00 in0.0 mm
01:25 AM 46.9°F8.3°C 46.6°F8.1°C 99% 5.3 mph N8.5 kmh N 9.8 mph15.8 kmh 29.59 in1002.0 mb 0.00 in0.0 mm 0.00 in0.0 mm 0.00 in0.0 mm
01:30 AM 46.9°F8.3°C 46.6°F8.1°C 99% 3.6 mph N5.8 kmh N 7.4 mph11.9 kmh 29.59 in1002.0 mb 0.00 in0.0 mm 0.00 in0.0 mm 0.00 in0.0 mm
01:35 AM 46.9°F8.3°C 46.6°F8.1°C 99% 2.7 mph N4.3 kmh N 7.4 mph11.9 kmh 29.58 in1001.7 mb 0.00 in0.0 mm 0.00 in0.0 mm 0.00 in0.0 mm
01:40 AM 46.9°F8.3°C 46.6°F8.1°C 99% 3.8 mph NNW6.1 kmh NNW 12.3 mph19.8 kmh 29.58 in1001.7 mb 0.00 in0.0 mm 0.00 in0.0 mm 0.00 in0.0 mm
01:45 AM 46.9°F8.3°C 46.6°F8.1°C 99% 4.9 mph N7.9 kmh N 9.8 mph15.8 kmh 29.58 in1001.7 mb 0.00 in0.0 mm 0.00 in0.0 mm 0.00 in0.0 mm
01:50 AM 46.9°F8.3°C 46.6°F8.1°C 99% 6.2 mph NNW10.0 kmh NNW 9.8 mph15.8 kmh 29.58 in1001.7 mb 0.00 in0.0 mm 0.00 in0.0 mm 0.00 in0.0 mm
01:55 AM 46.9°F8.3°C 46.6°F8.1°C 99% 6.6 mph NNE10.6 kmh NNE 9.8 mph15.8 kmh 29.57 in1001.4 mb 0.00 in0.0 mm 0.00 in0.0 mm 0.00 in0.0 mm
02:00 AM 46.9°F8.3°C 46.6°F8.1°C 99% 4.8 mph N7.7 kmh N 15.0 mph24.1 kmh 29.56 in1001.0 mb 0.00 in0.0 mm 0.00 in0.0 mm 0.00 in0.0 mm
02:05 AM 46.9°F8.3°C 46.6°F8.1°C 99% 5.5 mph N8.9 kmh N 9.8 mph15.8 kmh 29.56 in1001.0 mb 0.00 in0.0 mm 0.00 in0.0 mm 0.00 in0.0 mm
02:10 AM 46.9°F8.3°C 46.6°F8.1°C 99% 1.7 mph NW2.7 kmh NW 4.9 mph7.9 kmh 29.57 in1001.4 mb 0.00 in0.0 mm 0.00 in0.0 mm 0.00 in0.0 mm
02:15 AM 46.9°F8.3°C 46.6°F8.1°C 99% 3.8 mph N6.1 kmh N 7.4 mph11.9 kmh 29.57 in1001.4 mb 0.00 in0.0 mm 0.00 in0.0 mm 0.00 in0.0 mm
02:20 AM 47.0°F8.3°C 46.7°F8.2°C 99% 3.4 mph N5.5 kmh N 7.4 mph11.9 kmh 29.57 in1001.4 mb 0.00 in0.0 mm 0.00 in0.0 mm 0.00 in0.0 mm
02:25 AM 47.1°F8.4°C 46.8°F8.2°C 99% 2.3 mph NW3.7 kmh NW 4.9 mph7.9 kmh 29.58 in1001.7 mb 0.00 in0.0 mm 0.00 in0.0 mm 0.00 in0.0 mm
02:30 AM 47.3°F8.5°C 47.0°F8.3°C 99% 3.2 mph NW5.1 kmh NW 7.4 mph11.9 kmh 29.58 in1001.7 mb 0.00 in0.0 mm 0.00 in0.0 mm 0.00 in0.0 mm
02:35 AM 47.3°F8.5°C 47.1°F8.4°C 99% 4.2 mph N6.8 kmh N 9.8 mph15.8 kmh 29.59 in1002.0 mb 0.00 in0.0 mm 0.00 in0.0 mm 0.00 in0.0 mm
02:40 AM 47.5°F8.6°C 47.2°F8.4°C 99% 2.3 mph NW3.7 kmh NW 7.4 mph11.9 kmh 29.61 in1002.7 mb 0.00 in0.0 mm 0.00 in0.0 mm 0.00 in0.0 mm
02:45 AM 47.5°F8.6°C 47.2°F8.4°C 99% 5.5 mph NW8.9 kmh NW 9.8 mph15.8 kmh 29.60 in1002.4 mb 0.00 in0.0 mm 0.00 in0.0 mm 0.00 in0.0 mm
02:50 AM 47.5°F8.6°C 47.2°F8.4°C 99% 5.4 mph N8.7 kmh N 15.0 mph24.1 kmh 29.59 in1002.0 mb 0.00 in0.0 mm 0.00 in0.0 mm 0.00 in0.0 mm
02:55 AM 47.5°F8.6°C 47.2°F8.4°C 99% 4.3 mph N6.9 kmh N 7.4 mph11.9 kmh 29.59 in1002.0 mb 0.00 in0.0 mm 0.00 in0.0 mm 0.00 in0.0 mm
03:00 AM 47.5°F8.6°C 47.2°F8.4°C 99% 4.0 mph NNE6.4 kmh NNE 9.8 mph15.8 kmh 29.59 in1002.0 mb 0.00 in0.0 mm 0.00 in0.0 mm 0.00 in0.0 mm
03:05 AM 47.5°F8.6°C 47.2°F8.4°C 99% 3.6 mph NNW5.8 kmh NNW 7.4 mph11.9 kmh 29.58 in1001.7 mb 0.00 in0.0 mm 0.00 in0.0 mm 0.00 in0.0 mm
03:10 AM 47.5°F8.6°C 47.2°F8.4°C 99% 8.3 mph N13.4 kmh N 17.4 mph28.0 kmh 29.56 in1001.0 mb 0.00 in0.0 mm 0.00 in0.0 mm 0.00 in0.0 mm
03:15 AM 47.3°F8.5°C 47.0°F8.3°C 99% 3.7 mph NNE6.0 kmh NNE 9.8 mph15.8 kmh 29.57 in1001.4 mb 0.00 in0.0 mm 0.00 in0.0 mm 0.00 in0.0 mm
03:20 AM 47.3°F8.5°C 47.0°F8.3°C 99% 6.0 mph NNW9.7 kmh NNW 15.0 mph24.1 kmh 29.57 in1001.4 mb 0.00 in0.0 mm 0.00 in0.0 mm 0.00 in0.0 mm
03:25 AM 47.3°F8.5°C 47.0°F8.3°C 99% 3.1 mph NW5.0 kmh NW 4.9 mph7.9 kmh 29.58 in1001.7 mb 0.00 in0.0 mm 0.00 in0.0 mm 0.00 in0.0 mm
03:30 AM 47.3°F8.5°C 47.0°F8.3°C 99% 4.2 mph N6.8 kmh N 15.0 mph24.1 kmh 29.59 in1002.0 mb 0.00 in0.0 mm 0.00 in0.0 mm 0.00 in0.0 mm
03:35 AM 47.3°F8.5°C 47.0°F8.3°C 99% 3.6 mph N5.8 kmh N 9.8 mph15.8 kmh 29.58 in1001.7 mb 0.00 in0.0 mm 0.00 in0.0 mm 0.00 in0.0 mm
03:40 AM 47.3°F8.5°C 47.0°F8.3°C 99% 2.7 mph NNE4.3 kmh NNE 7.4 mph11.9 kmh 29.58 in1001.7 mb 0.00 in0.0 mm 0.00 in0.0 mm 0.00 in0.0 mm
03:45 AM 47.5°F8.6°C 47.2°F8.4°C 99% 4.3 mph N6.9 kmh N 9.8 mph15.8 kmh 29.57 in1001.4 mb 0.00 in0.0 mm 0.00 in0.0 mm 0.00 in0.0 mm
03:50 AM 47.5°F8.6°C 47.2°F8.4°C 99% 3.4 mph WNW5.5 kmh WNW 4.9 mph7.9 kmh 29.58 in1001.7 mb 0.00 in0.0 mm 0.00 in0.0 mm 0.00 in0.0 mm
03:55 AM 47.6°F8.7°C 47.3°F8.5°C 99% 3.1 mph NNW5.0 kmh NNW 12.3 mph19.8 kmh 29.59 in1002.0 mb 0.00 in0.0 mm 0.00 in0.0 mm 0.00 in0.0 mm
04:00 AM 47.7°F8.7°C 47.4°F8.6°C 99% 2.1 mph NNW3.4 kmh NNW 4.9 mph7.9 kmh 29.59 in1002.0 mb 0.00 in0.0 mm 0.00 in0.0 mm 0.00 in0.0 mm
04:05 AM 47.7°F8.7°C 47.4°F8.6°C 99% 3.7 mph N6.0 kmh N 7.4 mph11.9 kmh 29.59 in1002.0 mb 0.00 in0.0 mm 0.00 in0.0 mm 0.00 in0.0 mm
04:10 AM 47.8°F8.8°C 47.5°F8.6°C 99% 1.0 mph NW1.6 kmh NW 2.5 mph4.0 kmh 29.59 in1002.0 mb 0.00 in0.0 mm 0.00 in0.0 mm 0.00 in0.0 mm
04:15 AM 47.8°F8.8°C 47.5°F8.6°C 99% 4.7 mph NW7.6 kmh NW 7.4 mph11.9 kmh 29.59 in1002.0 mb 0.00 in0.0 mm 0.00 in0.0 mm 0.00 in0.0 mm
04:20 AM 47.8°F8.8°C 47.5°F8.6°C 99% 2.0 mph NW3.2 kmh NW 4.9 mph7.9 kmh 29.59 in1002.0 mb 0.00 in0.0 mm 0.00 in0.0 mm 0.00 in0.0 mm
04:25 AM 47.8°F8.8°C 47.5°F8.6°C 99% 3.3 mph N5.3 kmh N 7.4 mph11.9 kmh 29.58 in1001.7 mb 0.00 in0.0 mm 0.00 in0.0 mm 0.00 in0.0 mm
04:30 AM 47.8°F8.8°C 47.5°F8.6°C 99% 3.8 mph NNW6.1 kmh NNW 9.8 mph15.8 kmh 29.57 in1001.4 mb 0.00 in0.0 mm 0.00 in0.0 mm 0.00 in0.0 mm
04:35 AM 47.8°F8.8°C 47.5°F8.6°C 99% 5.9 mph NW9.5 kmh NW 9.8 mph15.8 kmh 29.57 in1001.4 mb 0.00 in0.0 mm 0.00 in0.0 mm 0.00 in0.0 mm
04:40 AM 47.8°F8.8°C 47.5°F8.6°C 99% 2.4 mph NW3.9 kmh NW 7.4 mph11.9 kmh 29.59 in1002.0 mb 0.00 in0.0 mm 0.00 in0.0 mm 0.00 in0.0 mm
04:45 AM 47.8°F8.8°C 47.5°F8.6°C 99% 5.0 mph N8.0 kmh N 9.8 mph15.8 kmh 29.58 in1001.7 mb 0.00 in0.0 mm 0.00 in0.0 mm 0.00 in0.0 mm
04:50 AM 47.8°F8.8°C 47.5°F8.6°C 99% 3.6 mph N5.8 kmh N 9.8 mph15.8 kmh 29.56 in1001.0 mb 0.00 in0.0 mm 0.00 in0.0 mm 0.00 in0.0 mm
04:55 AM 47.7°F8.7°C 47.4°F8.6°C 99% 4.2 mph NNW6.8 kmh NNW 12.3 mph19.8 kmh 29.57 in1001.4 mb 0.00 in0.0 mm 0.00 in0.0 mm 0.00 in0.0 mm
05:00 AM 47.7°F8.7°C 47.4°F8.6°C 99% 3.8 mph NW6.1 kmh NW 9.8 mph15.8 kmh 29.58 in1001.7 mb 0.00 in0.0 mm 0.00 in0.0 mm 0.00 in0.0 mm
05:05 AM 47.7°F8.7°C 47.4°F8.6°C 99% 1.6 mph NW2.6 kmh NW 4.9 mph7.9 kmh 29.57 in1001.4 mb 0.00 in0.0 mm 0.00 in0.0 mm 0.00 in0.0 mm
05:10 AM 47.7°F8.7°C 47.4°F8.6°C 99% 6.0 mph NW9.7 kmh NW 9.8 mph15.8 kmh 29.56 in1001.0 mb 0.00 in0.0 mm 0.00 in0.0 mm 0.00 in0.0 mm
05:15 AM 47.7°F8.7°C 47.4°F8.6°C 99% 3.5 mph NNW5.6 kmh NNW 9.8 mph15.8 kmh 29.57 in1001.4 mb 0.00 in0.0 mm 0.00 in0.0 mm 0.00 in0.0 mm
05:20 AM 47.7°F8.7°C 47.5°F8.6°C 99% 4.8 mph N7.7 kmh N 12.3 mph19.8 kmh 29.58 in1001.7 mb 0.00 in0.0 mm 0.00 in0.0 mm 0.00 in0.0 mm
05:25 AM 47.8°F8.8°C 47.5°F8.6°C 99% 3.0 mph NW4.8 kmh NW 4.9 mph7.9 kmh 29.59 in1002.0 mb 0.00 in0.0 mm 0.00 in0.0 mm 0.00 in0.0 mm
05:30 AM 47.8°F8.8°C 47.5°F8.6°C 99% 3.7 mph NW6.0 kmh NW 7.4 mph11.9 kmh 29.58 in1001.7 mb 0.00 in0.0 mm 0.00 in0.0 mm 0.00 in0.0 mm
05:35 AM 47.8°F8.8°C 47.5°F8.6°C 99% 5.3 mph NNE8.5 kmh NNE 7.4 mph11.9 kmh 29.57 in1001.4 mb 0.00 in0.0 mm 0.00 in0.0 mm 0.00 in0.0 mm
05:40 AM 47.8°F8.8°C 47.5°F8.6°C 99% 3.8 mph NNE6.1 kmh NNE 9.8 mph15.8 kmh 29.57 in1001.4 mb 0.00 in0.0 mm 0.00 in0.0 mm 0.00 in0.0 mm
05:45 AM 47.8°F8.8°C 47.5°F8.6°C 99% 4.6 mph N7.4 kmh N 9.8 mph15.8 kmh 29.55 in1000.7 mb 0.00 in0.0 mm 0.00 in0.0 mm 0.00 in0.0 mm
05:50 AM 47.8°F8.8°C 47.5°F8.6°C 99% 3.9 mph NW6.3 kmh NW 19.9 mph32.0 kmh 29.56 in1001.0 mb 0.00 in0.0 mm 0.00 in0.0 mm 0.00 in0.0 mm
05:55 AM 47.8°F8.8°C 47.5°F8.6°C 99% 2.3 mph NW3.7 kmh NW 7.4 mph11.9 kmh 29.58 in1001.7 mb 0.00 in0.0 mm 0.00 in0.0 mm 0.00 in0.0 mm
06:00 AM 47.8°F8.8°C 47.5°F8.6°C 99% 2.1 mph WNW3.4 kmh WNW 12.3 mph19.8 kmh 29.60 in1002.4 mb 0.00 in0.0 mm 0.00 in0.0 mm 0.00 in0.0 mm
06:05 AM 47.8°F8.8°C 47.6°F8.7°C 99% 4.5 mph NW7.2 kmh NW 12.3 mph19.8 kmh 29.63 in1003.4 mb 0.00 in0.0 mm 0.00 in0.0 mm 0.00 in0.0 mm
06:10 AM 48.0°F8.9°C 47.7°F8.7°C 99% 3.6 mph W5.8 kmh W 7.4 mph11.9 kmh 29.63 in1003.4 mb 0.00 in0.0 mm 0.00 in0.0 mm 0.00 in0.0 mm
06:15 AM 48.0°F8.9°C 47.7°F8.7°C 99% 8.5 mph NNW13.7 kmh NNW 12.3 mph19.8 kmh 29.60 in1002.4 mb 0.00 in0.0 mm 0.00 in0.0 mm 0.00 in0.0 mm
06:20 AM 48.2°F9.0°C 47.9°F8.8°C 99% 4.1 mph NW6.6 kmh NW 7.4 mph11.9 kmh 29.59 in1002.0 mb 0.00 in0.0 mm 0.00 in0.0 mm 0.00 in0.0 mm
06:25 AM 48.1°F8.9°C 47.8°F8.8°C 99% 4.0 mph WNW6.4 kmh WNW 12.3 mph19.8 kmh 29.61 in1002.7 mb 0.00 in0.0 mm 0.00 in0.0 mm 0.00 in0.0 mm
06:30 AM 48.0°F8.9°C 47.7°F8.7°C 99% 5.5 mph NW8.9 kmh NW 12.3 mph19.8 kmh 29.61 in1002.7 mb 0.00 in0.0 mm 0.00 in0.0 mm 0.00 in0.0 mm
06:35 AM 48.0°F8.9°C 47.7°F8.7°C 99% 5.7 mph NNW9.2 kmh NNW 9.8 mph15.8 kmh 29.60 in1002.4 mb 0.00 in0.0 mm 0.00 in0.0 mm 0.00 in0.0 mm
06:40 AM 47.8°F8.8°C 47.5°F8.6°C 99% 3.7 mph N6.0 kmh N 9.8 mph15.8 kmh 29.60 in1002.4 mb 0.00 in0.0 mm 0.00 in0.0 mm 0.00 in0.0 mm
06:45 AM 47.8°F8.8°C 47.5°F8.6°C 99% 4.9 mph NNW7.9 kmh NNW 12.3 mph19.8 kmh 29.59 in1002.0 mb 0.00 in0.0 mm 0.00 in0.0 mm 0.00 in0.0 mm
06:50 AM 47.7°F8.7°C 47.4°F8.6°C 99% 3.9 mph N6.3 kmh N 7.4 mph11.9 kmh 29.60 in1002.4 mb 0.00 in0.0 mm 0.00 in0.0 mm 0.00 in0.0 mm
06:55 AM 47.7°F8.7°C 47.4°F8.6°C 99% 3.1 mph NNW5.0 kmh NNW 7.4 mph11.9 kmh 29.61 in1002.7 mb 0.00 in0.0 mm 0.00 in0.0 mm 0.00 in0.0 mm
07:00 AM 47.6°F8.7°C 47.4°F8.6°C 99% 4.9 mph NW7.9 kmh NW 15.0 mph24.1 kmh 29.61 in1002.7 mb 0.00 in0.0 mm 0.00 in0.0 mm 0.00 in0.0 mm
07:05 AM 47.5°F8.6°C 47.2°F8.4°C 99% 4.3 mph N6.9 kmh N 9.8 mph15.8 kmh 29.60 in1002.4 mb 0.00 in0.0 mm 0.00 in0.0 mm 0.00 in0.0 mm
07:10 AM 47.5°F8.6°C 47.2°F8.4°C 99% 2.2 mph NW3.5 kmh NW 4.9 mph7.9 kmh 29.60 in1002.4 mb 0.00 in0.0 mm 0.00 in0.0 mm 0.00 in0.0 mm
07:15 AM 47.5°F8.6°C 47.2°F8.4°C 99% 2.7 mph NNW4.3 kmh NNW 7.4 mph11.9 kmh 29.60 in1002.4 mb 0.00 in0.0 mm 0.00 in0.0 mm 0.00 in0.0 mm
07:20 AM 47.5°F8.6°C 47.2°F8.4°C 99% 1.7 mph NNW2.7 kmh NNW 4.9 mph7.9 kmh 29.61 in1002.7 mb 0.00 in0.0 mm 0.00 in0.0 mm 0.00 in0.0 mm
07:25 AM 47.6°F8.7°C 47.4°F8.6°C 99% 1.2 mph NNE1.9 kmh NNE 7.4 mph11.9 kmh 29.61 in1002.7 mb 0.00 in0.0 mm 0.00 in0.0 mm 0.00 in0.0 mm
07:30 AM 47.7°F8.7°C 47.4°F8.6°C 99% 1.5 mph NW2.4 kmh NW 4.9 mph7.9 kmh 29.62 in1003.0 mb 0.00 in0.0 mm 0.00 in0.0 mm 0.00 in0.0 mm
07:35 AM 47.7°F8.7°C 47.5°F8.6°C 99% 2.2 mph NW3.5 kmh NW 12.3 mph19.8 kmh 29.62 in1003.0 mb 0.00 in0.0 mm 0.00 in0.0 mm 0.00 in0.0 mm
07:40 AM 47.8°F8.8°C 47.5°F8.6°C 99% 4.4 mph NNW7.1 kmh NNW 9.8 mph15.8 kmh 29.61 in1002.7 mb 0.00 in0.0 mm 0.00 in0.0 mm 0.00 in0.0 mm
07:45 AM 47.8°F8.8°C 47.6°F8.7°C 99% 2.6 mph N4.2 kmh N 7.4 mph11.9 kmh 29.61 in1002.7 mb 0.00 in0.0 mm 0.00 in0.0 mm 0.00 in0.0 mm
07:50 AM 48.0°F8.9°C 47.7°F8.7°C 99% 4.1 mph NW6.6 kmh NW 9.8 mph15.8 kmh 29.61 in1002.7 mb 0.00 in0.0 mm 0.00 in0.0 mm 0.00 in0.0 mm
07:55 AM 48.0°F8.9°C 47.7°F8.7°C 99% 2.7 mph N4.3 kmh N 9.8 mph15.8 kmh 29.62 in1003.0 mb 0.00 in0.0 mm 0.00 in0.0 mm 0.00 in0.0 mm
08:00 AM 48.0°F8.9°C 47.7°F8.7°C 99% 3.9 mph NW6.3 kmh NW 7.4 mph11.9 kmh 29.63 in1003.4 mb 0.00 in0.0 mm 0.00 in0.0 mm 0.00 in0.0 mm
08:05 AM 48.0°F8.9°C 47.7°F8.7°C 99% 2.4 mph N3.9 kmh N 7.4 mph11.9 kmh 29.63 in1003.4 mb 0.00 in0.0 mm 0.00 in0.0 mm 0.00 in0.0 mm
08:10 AM 48.0°F8.9°C 47.7°F8.7°C 99% 3.7 mph NNW6.0 kmh NNW 12.3 mph19.8 kmh 29.64 in1003.7 mb 0.00 in0.0 mm 0.00 in0.0 mm 0.00 in0.0 mm
08:15 AM 48.0°F8.9°C 47.7°F8.7°C 99% 3.1 mph N5.0 kmh N 7.4 mph11.9 kmh 29.63 in1003.4 mb 0.00 in0.0 mm 0.00 in0.0 mm 0.00 in0.0 mm
08:20 AM 48.0°F8.9°C 47.7°F8.7°C 99% 2.9 mph N4.7 kmh N 7.4 mph11.9 kmh 29.63 in1003.4 mb 0.00 in0.0 mm 0.00 in0.0 mm 0.00 in0.0 mm
08:25 AM 48.0°F8.9°C 47.7°F8.7°C 99% 3.2 mph NNW5.1 kmh NNW 9.8 mph15.8 kmh 29.63 in1003.4 mb 0.00 in0.0 mm 0.00 in0.0 mm 0.00 in0.0 mm
08:30 AM 48.0°F8.9°C 47.7°F8.7°C 99% 4.1 mph N6.6 kmh N 9.8 mph15.8 kmh 29.62 in1003.0 mb 0.00 in0.0 mm 0.00 in0.0 mm 0.00 in0.0 mm
08:35 AM 48.0°F8.9°C 47.7°F8.7°C 99% 3.8 mph NW6.1 kmh NW 9.8 mph15.8 kmh 29.62 in1003.0 mb 0.00 in0.0 mm 0.00 in0.0 mm 0.00 in0.0 mm
08:40 AM 48.0°F8.9°C 47.7°F8.7°C 99% 3.9 mph NNE6.3 kmh NNE 7.4 mph11.9 kmh 29.62 in1003.0 mb 0.00 in0.0 mm 0.00 in0.0 mm 0.00 in0.0 mm
08:45 AM 48.0°F8.9°C 47.7°F8.7°C 99% 6.2 mph N10.0 kmh N 12.3 mph19.8 kmh 29.62 in1003.0 mb 0.00 in0.0 mm 0.00 in0.0 mm 0.00 in0.0 mm
08:50 AM 48.0°F8.9°C 47.7°F8.7°C 99% 4.7 mph NNW7.6 kmh NNW 12.3 mph19.8 kmh 29.62 in1003.0 mb 0.00 in0.0 mm 0.00 in0.0 mm 0.00 in0.0 mm
08:55 AM 48.0°F8.9°C 47.7°F8.7°C 99% 4.9 mph N7.9 kmh N 7.4 mph11.9 kmh 29.62 in1003.0 mb 0.00 in0.0 mm 0.00 in0.0 mm 0.00 in0.0 mm
09:00 AM 48.0°F8.9°C 47.7°F8.7°C 99% 6.3 mph N10.1 kmh N 12.3 mph19.8 kmh 29.62 in1003.0 mb 0.00 in0.0 mm 0.00 in0.0 mm 0.00 in0.0 mm
09:05 AM 48.0°F8.9°C 47.7°F8.7°C 99% 4.3 mph N6.9 kmh N 7.4 mph11.9 kmh 29.62 in1003.0 mb 0.00 in0.0 mm 0.00 in0.0 mm 0.00 in0.0 mm
09:10 AM 48.0°F8.9°C 47.7°F8.7°C 99% 6.0 mph NW9.7 kmh NW 15.0 mph24.1 kmh 29.62 in1003.0 mb 0.00 in0.0 mm 0.00 in0.0 mm 0.00 in0.0 mm
09:15 AM 48.0°F8.9°C 47.7°F8.7°C 99% 7.8 mph NNW12.6 kmh NNW 22.4 mph36.0 kmh 29.62 in1003.0 mb 0.00 in0.0 mm 0.00 in0.0 mm 0.00 in0.0 mm
09:20 AM 48.0°F8.9°C 47.7°F8.7°C 99% 4.6 mph N7.4 kmh N 12.3 mph19.8 kmh 29.61 in1002.7 mb 0.00 in0.0 mm 0.00 in0.0 mm 0.00 in0.0 mm
09:25 AM 47.9°F8.8°C 47.7°F8.7°C 99% 3.9 mph NNW6.3 kmh NNW 12.3 mph19.8 kmh 29.61 in1002.7 mb 0.00 in0.0 mm 0.00 in0.0 mm 0.00 in0.0 mm
09:30 AM 47.8°F8.8°C 47.6°F8.7°C 99% 4.9 mph NNW7.9 kmh NNW 12.3 mph19.8 kmh 29.61 in1002.7 mb 0.00 in0.0 mm 0.00 in0.0 mm 0.00 in0.0 mm
09:35 AM 48.0°F8.9°C 47.7°F8.7°C 99% 7.0 mph N11.3 kmh N 12.3 mph19.8 kmh 29.60 in1002.4 mb 0.00 in0.0 mm 0.00 in0.0 mm 0.00 in0.0 mm
09:40 AM 47.9°F8.8°C 47.7°F8.7°C 99% 6.2 mph N10.0 kmh N 15.0 mph24.1 kmh 29.60 in1002.4 mb 0.00 in0.0 mm 0.00 in0.0 mm 0.00 in0.0 mm
09:45 AM 47.8°F8.8°C 47.5°F8.6°C 99% 4.4 mph N7.1 kmh N 12.3 mph19.8 kmh 29.60 in1002.4 mb 0.00 in0.0 mm 0.00 in0.0 mm 0.00 in0.0 mm
09:50 AM 47.8°F8.8°C 47.5°F8.6°C 99% 5.2 mph N8.4 kmh N 12.3 mph19.8 kmh 29.61 in1002.7 mb 0.00 in0.0 mm 0.00 in0.0 mm 0.00 in0.0 mm
09:55 AM 47.8°F8.8°C 47.6°F8.7°C 99% 3.3 mph NW5.3 kmh NW 7.4 mph11.9 kmh 29.62 in1003.0 mb 0.00 in0.0 mm 0.00 in0.0 mm 0.00 in0.0 mm
10:00 AM 47.9°F8.8°C 47.7°F8.7°C 99% 2.6 mph NNE4.2 kmh NNE 4.9 mph7.9 kmh 29.62 in1003.0 mb 0.00 in0.0 mm 0.00 in0.0 mm 0.00 in0.0 mm
10:05 AM 48.0°F8.9°C 47.7°F8.7°C 99% 6.2 mph NW10.0 kmh NW 9.8 mph15.8 kmh 29.62 in1003.0 mb 0.00 in0.0 mm 0.00 in0.0 mm 0.00 in0.0 mm
10:10 AM 48.0°F8.9°C 47.7°F8.7°C 99% 6.2 mph N10.0 kmh N 9.8 mph15.8 kmh 29.62 in1003.0 mb 0.00 in0.0 mm 0.00 in0.0 mm 0.00 in0.0 mm
10:15 AM 48.0°F8.9°C 47.7°F8.7°C 99% 4.4 mph NNW7.1 kmh NNW 12.3 mph19.8 kmh 29.63 in1003.4 mb 0.00 in0.0 mm 0.00 in0.0 mm 0.00 in0.0 mm
10:20 AM 48.0°F8.9°C 47.7°F8.7°C 99% 2.3 mph WNW3.7 kmh WNW 7.4 mph11.9 kmh 29.64 in1003.7 mb 0.00 in0.0 mm 0.00 in0.0 mm 0.00 in0.0 mm
10:25 AM 48.0°F8.9°C 47.8°F8.8°C 99% 3.4 mph N5.5 kmh N 7.4 mph11.9 kmh 29.64 in1003.7 mb 0.00 in0.0 mm 0.00 in0.0 mm 0.00 in0.0 mm
10:30 AM 48.2°F9.0°C 47.9°F8.8°C 99% 2.6 mph N4.2 kmh N 7.4 mph11.9 kmh 29.65 in1004.1 mb 0.00 in0.0 mm 0.00 in0.0 mm 0.00 in0.0 mm
10:35 AM 48.2°F9.0°C 48.0°F8.9°C 99% 3.6 mph NNW5.8 kmh NNW 7.4 mph11.9 kmh 29.64 in1003.7 mb 0.00 in0.0 mm 0.00 in0.0 mm 0.00 in0.0 mm
10:40 AM 48.4°F9.1°C 48.1°F8.9°C 99% 4.5 mph NW7.2 kmh NW 9.8 mph15.8 kmh 29.64 in1003.7 mb 0.00 in0.0 mm 0.00 in0.0 mm 0.00 in0.0 mm
10:45 AM 48.5°F9.2°C 48.2°F9.0°C 99% 4.0 mph NW6.4 kmh NW 12.3 mph19.8 kmh 29.64 in1003.7 mb 0.00 in0.0 mm 0.00 in0.0 mm 0.00 in0.0 mm
10:50 AM 48.6°F9.2°C 48.3°F9.1°C 99% 4.8 mph N7.7 kmh N 12.3 mph19.8 kmh 29.65 in1004.1 mb 0.00 in0.0 mm 0.00 in0.0 mm 0.00 in0.0 mm
10:55 AM 48.6°F9.2°C 48.3°F9.1°C 99% 4.3 mph NW6.9 kmh NW 9.8 mph15.8 kmh 29.64 in1003.7 mb 0.00 in0.0 mm 0.00 in0.0 mm 0.00 in0.0 mm
11:00 AM 48.6°F9.2°C 48.3°F9.1°C 99% 5.4 mph NNW8.7 kmh NNW 17.4 mph28.0 kmh 29.64 in1003.7 mb 0.00 in0.0 mm 0.00 in0.0 mm 0.00 in0.0 mm
11:05 AM 48.6°F9.2°C 48.3°F9.1°C 99% 5.6 mph NW9.0 kmh NW 12.3 mph19.8 kmh 29.64 in1003.7 mb 0.00 in0.0 mm 0.00 in0.0 mm 0.00 in0.0 mm
11:10 AM 48.6°F9.2°C 48.3°F9.1°C 99% 6.5 mph N10.5 kmh N 9.8 mph15.8 kmh 29.64 in1003.7 mb 0.00 in0.0 mm 0.00 in0.0 mm 0.00 in0.0 mm
11:15 AM 48.6°F9.2°C 48.3°F9.1°C 99% 3.4 mph NNW5.5 kmh NNW 7.4 mph11.9 kmh 29.64 in1003.7 mb 0.00 in0.0 mm 0.00 in0.0 mm 0.00 in0.0 mm
11:20 AM 48.6°F9.2°C 48.3°F9.1°C 99% 3.8 mph NW6.1 kmh NW 7.4 mph11.9 kmh 29.64 in1003.7 mb 0.00 in0.0 mm 0.00 in0.0 mm 0.00 in0.0 mm
11:25 AM 48.6°F9.2°C 48.3°F9.1°C 99% 2.7 mph NW4.3 kmh NW 7.4 mph11.9 kmh 29.64 in1003.7 mb 0.00 in0.0 mm 0.00 in0.0 mm 0.00 in0.0 mm
11:30 AM 48.6°F9.2°C 48.3°F9.1°C 99% 4.0 mph NNW6.4 kmh NNW 7.4 mph11.9 kmh 29.64 in1003.7 mb 0.00 in0.0 mm 0.00 in0.0 mm 0.00 in0.0 mm
11:35 AM 48.6°F9.2°C 48.3°F9.1°C 99% 3.9 mph N6.3 kmh N 7.4 mph11.9 kmh 29.64 in1003.7 mb 0.00 in0.0 mm 0.00 in0.0 mm 0.00 in0.0 mm
11:40 AM 48.6°F9.2°C 48.3°F9.1°C 99% 1.9 mph WNW3.1 kmh WNW 4.9 mph7.9 kmh 29.64 in1003.7 mb 0.00 in0.0 mm 0.00 in0.0 mm 0.00 in0.0 mm
11:45 AM 48.4°F9.1°C 48.1°F8.9°C 99% 2.9 mph NW4.7 kmh NW 4.9 mph7.9 kmh 29.63 in1003.4 mb 0.00 in0.0 mm 0.00 in0.0 mm 0.00 in0.0 mm
11:50 AM 48.4°F9.1°C 48.1°F8.9°C 99% 4.3 mph N6.9 kmh N 7.4 mph11.9 kmh 29.63 in1003.4 mb 0.00 in0.0 mm 0.00 in0.0 mm 0.00 in0.0 mm
01:05 PM 48.6°F9.2°C 48.3°F9.1°C 99% 1.6 mph NNW2.6 kmh NNW 7.4 mph11.9 kmh 29.62 in1003.0 mb 0.00 in0.0 mm 0.00 in0.0 mm 0.00 in0.0 mm
01:10 PM 48.6°F9.2°C 48.3°F9.1°C 99% 6.5 mph NW10.5 kmh NW 12.3 mph19.8 kmh 29.61 in1002.7 mb 0.00 in0.0 mm 0.00 in0.0 mm 0.00 in0.0 mm
01:50 PM 48.8°F9.3°C 48.5°F9.2°C 99% 3.0 mph N4.8 kmh N 4.9 mph7.9 kmh 29.59 in1002.0 mb 0.00 in0.0 mm 0.00 in0.0 mm 0.00 in0.0 mm
01:55 PM 48.9°F9.4°C 48.6°F9.2°C 99% 2.6 mph NNW4.2 kmh NNW 4.9 mph7.9 kmh 29.59 in1002.0 mb 0.00 in0.0 mm 0.00 in0.0 mm 0.00 in0.0 mm
02:00 PM 48.9°F9.4°C 48.7°F9.3°C 99% 4.0 mph NNW6.4 kmh NNW 12.3 mph19.8 kmh 29.59 in1002.0 mb 0.00 in0.0 mm 0.00 in0.0 mm 0.00 in0.0 mm
02:05 PM 49.1°F9.5°C 48.8°F9.3°C 99% 2.5 mph NW4.0 kmh NW 4.9 mph7.9 kmh 29.59 in1002.0 mb 0.00 in0.0 mm 0.00 in0.0 mm 0.00 in0.0 mm
02:10 PM 49.1°F9.5°C 48.8°F9.3°C 99% 4.4 mph NW7.1 kmh NW 7.4 mph11.9 kmh 29.59 in1002.0 mb 0.00 in0.0 mm 0.00 in0.0 mm 0.00 in0.0 mm
02:15 PM 49.1°F9.5°C 48.9°F9.4°C 99% 4.9 mph NNW7.9 kmh NNW 9.8 mph15.8 kmh 29.58 in1001.7 mb 0.00 in0.0 mm 0.00 in0.0 mm 0.00 in0.0 mm
02:20 PM 49.3°F9.6°C 49.0°F9.4°C 99% 2.9 mph N4.7 kmh N 7.4 mph11.9 kmh 29.58 in1001.7 mb 0.00 in0.0 mm 0.00 in0.0 mm 0.00 in0.0 mm
02:25 PM 49.4°F9.7°C 49.1°F9.5°C 99% 2.3 mph N3.7 kmh N 7.4 mph11.9 kmh 29.58 in1001.7 mb 0.00 in0.0 mm 0.00 in0.0 mm 0.00 in0.0 mm
02:30 PM 49.5°F9.7°C 49.2°F9.6°C 99% 1.6 mph NE2.6 kmh NE 4.9 mph7.9 kmh 29.58 in1001.7 mb 0.00 in0.0 mm 0.00 in0.0 mm 0.00 in0.0 mm
02:35 PM 49.5°F9.7°C 49.3°F9.6°C 99% 1.2 mph NW1.9 kmh NW 4.9 mph7.9 kmh 29.59 in1002.0 mb 0.00 in0.0 mm 0.00 in0.0 mm 0.00 in0.0 mm
02:40 PM 49.6°F9.8°C 49.4°F9.7°C 99% 4.2 mph NNW6.8 kmh NNW 12.3 mph19.8 kmh 29.59 in1002.0 mb 0.00 in0.0 mm 0.00 in0.0 mm 0.00 in0.0 mm
02:45 PM 49.8°F9.9°C 49.5°F9.7°C 99% 2.8 mph NW4.5 kmh NW 7.4 mph11.9 kmh 29.60 in1002.4 mb 0.00 in0.0 mm 0.00 in0.0 mm 0.00 in0.0 mm
02:50 PM 49.8°F9.9°C 49.5°F9.7°C 99% 2.2 mph NNW3.5 kmh NNW 7.4 mph11.9 kmh 29.59 in1002.0 mb 0.00 in0.0 mm 0.00 in0.0 mm 0.00 in0.0 mm
02:55 PM 50.0°F10.0°C 49.7°F9.8°C 99% 4.9 mph NNW7.9 kmh NNW 12.3 mph19.8 kmh 29.58 in1001.7 mb 0.00 in0.0 mm 0.00 in0.0 mm 0.00 in0.0 mm
03:00 PM 50.0°F10.0°C 49.7°F9.8°C 99% 3.9 mph NNW6.3 kmh NNW 9.8 mph15.8 kmh 29.58 in1001.7 mb 0.00 in0.0 mm 0.00 in0.0 mm 0.00 in0.0 mm
03:05 PM 50.0°F10.0°C 49.7°F9.8°C 99% 4.2 mph NNW6.8 kmh NNW 9.8 mph15.8 kmh 29.58 in1001.7 mb 0.00 in0.0 mm 0.00 in0.0 mm 0.00 in0.0 mm
03:10 PM 49.8°F9.9°C 49.6°F9.8°C 99% 5.4 mph NNW8.7 kmh NNW 9.8 mph15.8 kmh 29.58 in1001.7 mb 0.00 in0.0 mm 0.00 in0.0 mm 0.00 in0.0 mm
03:15 PM 49.8°F9.9°C 49.5°F9.7°C 99% 5.1 mph NW8.2 kmh NW 9.8 mph15.8 kmh 29.58 in1001.7 mb 0.00 in0.0 mm 0.00 in0.0 mm 0.00 in0.0 mm
03:20 PM 49.8°F9.9°C 49.5°F9.7°C 99% 6.3 mph NW10.1 kmh NW 12.3 mph19.8 kmh 29.58 in1001.7 mb 0.00 in0.0 mm 0.00 in0.0 mm 0.00 in0.0 mm
03:25 PM 49.6°F9.8°C 49.3°F9.6°C 99% 4.9 mph WNW7.9 kmh WNW 12.3 mph19.8 kmh 29.58 in1001.7 mb 0.00 in0.0 mm 0.00 in0.0 mm 0.00 in0.0 mm
03:30 PM 49.6°F9.8°C 49.3°F9.6°C 99% 4.6 mph NNW7.4 kmh NNW 12.3 mph19.8 kmh 29.59 in1002.0 mb 0.00 in0.0 mm 0.00 in0.0 mm 0.00 in0.0 mm
03:35 PM 49.5°F9.7°C 49.2°F9.6°C 99% 6.2 mph NNW10.0 kmh NNW 9.8 mph15.8 kmh 29.59 in1002.0 mb 0.00 in0.0 mm 0.00 in0.0 mm 0.00 in0.0 mm
03:40 PM 49.5°F9.7°C 49.2°F9.6°C 99% 3.1 mph NW5.0 kmh NW 9.8 mph15.8 kmh 29.59 in1002.0 mb 0.00 in0.0 mm 0.00 in0.0 mm 0.00 in0.0 mm
03:45 PM 49.3°F9.6°C 49.0°F9.4°C 99% 3.5 mph NW5.6 kmh NW 9.8 mph15.8 kmh 29.59 in1002.0 mb 0.00 in0.0 mm 0.00 in0.0 mm 0.00 in0.0 mm
03:50 PM 49.2°F9.6°C 49.0°F9.4°C 99% 8.8 mph NNW14.2 kmh NNW 15.0 mph24.1 kmh 29.59 in1002.0 mb 0.00 in0.0 mm 0.00 in0.0 mm 0.00 in0.0 mm
03:55 PM 49.1°F9.5°C 48.8°F9.3°C 99% 5.2 mph N8.4 kmh N 9.8 mph15.8 kmh 29.59 in1002.0 mb 0.00 in0.0 mm 0.00 in0.0 mm 0.00 in0.0 mm
04:00 PM 49.1°F9.5°C 48.8°F9.3°C 99% 4.5 mph NW7.2 kmh NW 9.8 mph15.8 kmh 29.60 in1002.4 mb 0.00 in0.0 mm 0.00 in0.0 mm 0.00 in0.0 mm
04:05 PM 49.1°F9.5°C 48.8°F9.3°C 99% 5.8 mph NW9.3 kmh NW 15.0 mph24.1 kmh 29.59 in1002.0 mb 0.00 in0.0 mm 0.00 in0.0 mm 0.00 in0.0 mm
04:10 PM 49.0°F9.4°C 48.8°F9.3°C 99% 6.6 mph NW10.6 kmh NW 15.0 mph24.1 kmh 29.59 in1002.0 mb 0.00 in0.0 mm 0.00 in0.0 mm 0.00 in0.0 mm
04:15 PM 48.9°F9.4°C 48.6°F9.2°C 99% 6.5 mph N10.5 kmh N 12.3 mph19.8 kmh 29.59 in1002.0 mb 0.00 in0.0 mm 0.00 in0.0 mm 0.00 in0.0 mm
04:20 PM 49.0°F9.4°C 48.7°F9.3°C 99% 5.1 mph N8.2 kmh N 9.8 mph15.8 kmh 29.59 in1002.0 mb 0.00 in0.0 mm 0.00 in0.0 mm 0.00 in0.0 mm
04:25 PM 49.1°F9.5°C 48.8°F9.3°C 99% 6.0 mph NW9.7 kmh NW 12.3 mph19.8 kmh 29.60 in1002.4 mb 0.00 in0.0 mm 0.00 in0.0 mm 0.00 in0.0 mm
04:30 PM 49.1°F9.5°C 48.9°F9.4°C 99% 7.1 mph NNW11.4 kmh NNW 12.3 mph19.8 kmh 29.59 in1002.0 mb 0.00 in0.0 mm 0.00 in0.0 mm 0.00 in0.0 mm
04:35 PM 49.3°F9.6°C 49.0°F9.4°C 99% 8.1 mph NNW13.0 kmh NNW 17.4 mph28.0 kmh 29.59 in1002.0 mb 0.00 in0.0 mm 0.00 in0.0 mm 0.00 in0.0 mm
04:40 PM 49.3°F9.6°C 49.1°F9.5°C 99% 3.3 mph NW5.3 kmh NW 9.8 mph15.8 kmh 29.60 in1002.4 mb 0.00 in0.0 mm 0.00 in0.0 mm 0.00 in0.0 mm
04:45 PM 49.5°F9.7°C 49.2°F9.6°C 99% 4.3 mph NW6.9 kmh NW 9.8 mph15.8 kmh 29.60 in1002.4 mb 0.00 in0.0 mm 0.00 in0.0 mm 0.00 in0.0 mm
04:50 PM 49.5°F9.7°C 49.2°F9.6°C 99% 3.0 mph NNW4.8 kmh NNW 9.8 mph15.8 kmh 29.59 in1002.0 mb 0.00 in0.0 mm 0.00 in0.0 mm 0.00 in0.0 mm
04:55 PM 49.5°F9.7°C 49.2°F9.6°C 99% 3.7 mph NW6.0 kmh NW 7.4 mph11.9 kmh 29.60 in1002.4 mb 0.00 in0.0 mm 0.00 in0.0 mm 0.00 in0.0 mm
05:00 PM 49.6°F9.8°C 49.3°F9.6°C 99% 4.8 mph NW7.7 kmh NW 12.3 mph19.8 kmh 29.59 in1002.0 mb 0.00 in0.0 mm 0.00 in0.0 mm 0.00 in0.0 mm
05:05 PM 49.6°F9.8°C 49.3°F9.6°C 99% 3.1 mph N5.0 kmh N 7.4 mph11.9 kmh 29.60 in1002.4 mb 0.00 in0.0 mm 0.00 in0.0 mm 0.00 in0.0 mm
05:10 PM 49.6°F9.8°C 49.3°F9.6°C 99% 3.1 mph NNW5.0 kmh NNW 12.3 mph19.8 kmh 29.60 in1002.4 mb 0.00 in0.0 mm 0.00 in0.0 mm 0.00 in0.0 mm
05:15 PM 49.5°F9.7°C 49.2°F9.6°C 99% 4.9 mph N7.9 kmh N 9.8 mph15.8 kmh 29.59 in1002.0 mb 0.00 in0.0 mm 0.00 in0.0 mm 0.00 in0.0 mm
05:20 PM 49.5°F9.7°C 49.2°F9.6°C 99% 4.9 mph N7.9 kmh N 17.4 mph28.0 kmh 29.59 in1002.0 mb 0.00 in0.0 mm 0.00 in0.0 mm 0.00 in0.0 mm
05:25 PM 49.5°F9.7°C 49.2°F9.6°C 99% 6.1 mph N9.8 kmh N 9.8 mph15.8 kmh 29.59 in1002.0 mb 0.00 in0.0 mm 0.00 in0.0 mm 0.00 in0.0 mm
05:30 PM 49.5°F9.7°C 49.2°F9.6°C 99% 3.9 mph NNW6.3 kmh NNW 7.4 mph11.9 kmh 29.59 in1002.0 mb 0.00 in0.0 mm 0.00 in0.0 mm 0.00 in0.0 mm
05:35 PM 49.5°F9.7°C 49.2°F9.6°C 99% 3.9 mph NW6.3 kmh NW 7.4 mph11.9 kmh 29.59 in1002.0 mb 0.00 in0.0 mm 0.00 in0.0 mm 0.00 in0.0 mm
05:40 PM 49.5°F9.7°C 49.2°F9.6°C 99% 4.9 mph NW7.9 kmh NW 12.3 mph19.8 kmh 29.58 in1001.7 mb 0.00 in0.0 mm 0.00 in0.0 mm 0.00 in0.0 mm
05:45 PM 49.5°F9.7°C 49.2°F9.6°C 99% 3.0 mph NNW4.8 kmh NNW 7.4 mph11.9 kmh 29.58 in1001.7 mb 0.00 in0.0 mm 0.00 in0.0 mm 0.00 in0.0 mm
05:50 PM 49.5°F9.7°C 49.2°F9.6°C 99% 4.0 mph NNW6.4 kmh NNW 7.4 mph11.9 kmh 29.58 in1001.7 mb 0.00 in0.0 mm 0.00 in0.0 mm 0.00 in0.0 mm
05:55 PM 49.5°F9.7°C 49.2°F9.6°C 99% 4.8 mph N7.7 kmh N 9.8 mph15.8 kmh 29.59 in1002.0 mb 0.00 in0.0 mm 0.00 in0.0 mm 0.00 in0.0 mm
06:00 PM 49.5°F9.7°C 49.2°F9.6°C 99% 2.6 mph N4.2 kmh N 7.4 mph11.9 kmh 29.59 in1002.0 mb 0.00 in0.0 mm 0.00 in0.0 mm 0.00 in0.0 mm
06:05 PM 49.5°F9.7°C 49.2°F9.6°C 99% 4.4 mph N7.1 kmh N 7.4 mph11.9 kmh 29.59 in1002.0 mb 0.00 in0.0 mm 0.00 in0.0 mm 0.00 in0.0 mm
06:10 PM 49.5°F9.7°C 49.2°F9.6°C 99% 5.1 mph NW8.2 kmh NW 12.3 mph19.8 kmh 29.59 in1002.0 mb 0.00 in0.0 mm 0.00 in0.0 mm 0.00 in0.0 mm
06:15 PM 49.5°F9.7°C 49.2°F9.6°C 99% 5.5 mph NW8.9 kmh NW 12.3 mph19.8 kmh 29.59 in1002.0 mb 0.00 in0.0 mm 0.00 in0.0 mm 0.00 in0.0 mm
06:20 PM 49.5°F9.7°C 49.2°F9.6°C 99% 2.9 mph N4.7 kmh N 7.4 mph11.9 kmh 29.59 in1002.0 mb 0.00 in0.0 mm 0.00 in0.0 mm 0.00 in0.0 mm
06:25 PM 49.5°F9.7°C 49.2°F9.6°C 99% 4.4 mph NNW7.1 kmh NNW 9.8 mph15.8 kmh 29.59 in1002.0 mb 0.00 in0.0 mm 0.00 in0.0 mm 0.00 in0.0 mm
06:30 PM 49.5°F9.7°C 49.3°F9.6°C 99% 2.5 mph N4.0 kmh N 7.4 mph11.9 kmh 29.59 in1002.0 mb 0.00 in0.0 mm 0.00 in0.0 mm 0.00 in0.0 mm
06:35 PM 49.6°F9.8°C 49.3°F9.6°C 99% 4.2 mph N6.8 kmh N 9.8 mph15.8 kmh 29.59 in1002.0 mb 0.00 in0.0 mm 0.00 in0.0 mm 0.00 in0.0 mm
06:40 PM 49.6°F9.8°C 49.3°F9.6°C 99% 5.2 mph NNW8.4 kmh NNW 9.8 mph15.8 kmh 29.59 in1002.0 mb 0.00 in0.0 mm 0.00 in0.0 mm 0.00 in0.0 mm
06:45 PM 49.6°F9.8°C 49.3°F9.6°C 99% 5.1 mph N8.2 kmh N 15.0 mph24.1 kmh 29.60 in1002.4 mb 0.00 in0.0 mm 0.00 in0.0 mm 0.00 in0.0 mm
06:50 PM 49.6°F9.8°C 49.3°F9.6°C 99% 2.8 mph NNW4.5 kmh NNW 12.3 mph19.8 kmh 29.60 in1002.4 mb 0.00 in0.0 mm 0.00 in0.0 mm 0.00 in0.0 mm
06:55 PM 49.6°F9.8°C 49.3°F9.6°C 99% 6.8 mph NW10.9 kmh NW 15.0 mph24.1 kmh 29.60 in1002.4 mb 0.00 in0.0 mm 0.00 in0.0 mm 0.00 in0.0 mm
07:00 PM 49.6°F9.8°C 49.3°F9.6°C 99% 2.9 mph N4.7 kmh N 7.4 mph11.9 kmh 29.61 in1002.7 mb 0.00 in0.0 mm 0.00 in0.0 mm 0.00 in0.0 mm
07:05 PM 49.6°F9.8°C 49.3°F9.6°C 99% 2.9 mph NNW4.7 kmh NNW 7.4 mph11.9 kmh 29.61 in1002.7 mb 0.00 in0.0 mm 0.00 in0.0 mm 0.00 in0.0 mm
07:10 PM 49.6°F9.8°C 49.3°F9.6°C 99% 4.0 mph NNW6.4 kmh NNW 7.4 mph11.9 kmh 29.61 in1002.7 mb 0.00 in0.0 mm 0.00 in0.0 mm 0.00 in0.0 mm
07:15 PM 49.6°F9.8°C 49.3°F9.6°C 99% 3.2 mph N5.1 kmh N 9.8 mph15.8 kmh 29.61 in1002.7 mb 0.00 in0.0 mm 0.00 in0.0 mm 0.00 in0.0 mm
07:20 PM 49.6°F9.8°C 49.3°F9.6°C 99% 3.1 mph NW5.0 kmh NW 7.4 mph11.9 kmh 29.61 in1002.7 mb 0.00 in0.0 mm 0.00 in0.0 mm 0.00 in0.0 mm
07:25 PM 49.6°F9.8°C 49.4°F9.7°C 99% 3.6 mph NNW5.8 kmh NNW 9.8 mph15.8 kmh 29.61 in1002.7 mb 0.00 in0.0 mm 0.00 in0.0 mm 0.00 in0.0 mm
07:30 PM 49.8°F9.9°C 49.5°F9.7°C 99% 3.0 mph NNW4.8 kmh NNW 12.3 mph19.8 kmh 29.61 in1002.7 mb 0.00 in0.0 mm 0.00 in0.0 mm 0.00 in0.0 mm
07:35 PM 49.8°F9.9°C 49.5°F9.7°C 99% 2.5 mph NNW4.0 kmh NNW 4.9 mph7.9 kmh 29.61 in1002.7 mb 0.00 in0.0 mm 0.00 in0.0 mm 0.00 in0.0 mm
07:40 PM 49.8°F9.9°C 49.5°F9.7°C 99% 3.0 mph NW4.8 kmh NW 7.4 mph11.9 kmh 29.61 in1002.7 mb 0.00 in0.0 mm 0.00 in0.0 mm 0.00 in0.0 mm
07:45 PM 49.8°F9.9°C 49.5°F9.7°C 99% 1.6 mph NNW2.6 kmh NNW 4.9 mph7.9 kmh 29.62 in1003.0 mb 0.00 in0.0 mm 0.00 in0.0 mm 0.00 in0.0 mm
07:50 PM 50.0°F10.0°C 49.7°F9.8°C 99% 2.1 mph NW3.4 kmh NW 4.9 mph7.9 kmh 29.62 in1003.0 mb 0.00 in0.0 mm 0.00 in0.0 mm 0.00 in0.0 mm
07:55 PM 50.0°F10.0°C 49.7°F9.8°C 99% 3.5 mph NNW5.6 kmh NNW 7.4 mph11.9 kmh 29.62 in1003.0 mb 0.00 in0.0 mm 0.00 in0.0 mm 0.00 in0.0 mm
08:00 PM 50.0°F10.0°C 49.7°F9.8°C 99% 4.0 mph NNW6.4 kmh NNW 9.8 mph15.8 kmh 29.62 in1003.0 mb 0.00 in0.0 mm 0.00 in0.0 mm 0.00 in0.0 mm
08:05 PM 50.0°F10.0°C 49.7°F9.8°C 99% 3.2 mph NW5.1 kmh NW 7.4 mph11.9 kmh 29.62 in1003.0 mb 0.00 in0.0 mm 0.00 in0.0 mm 0.00 in0.0 mm
08:10 PM 50.2°F10.1°C 49.9°F9.9°C 99% 2.5 mph N4.0 kmh N 7.4 mph11.9 kmh 29.62 in1003.0 mb 0.00 in0.0 mm 0.00 in0.0 mm 0.00 in0.0 mm
08:15 PM 50.2°F10.1°C 49.9°F9.9°C 99% 4.9 mph NNW7.9 kmh NNW 9.8 mph15.8 kmh 29.62 in1003.0 mb 0.00 in0.0 mm 0.00 in0.0 mm 0.00 in0.0 mm
08:20 PM 50.2°F10.1°C 49.9°F9.9°C 99% 4.5 mph NNW7.2 kmh NNW 12.3 mph19.8 kmh 29.62 in1003.0 mb 0.00 in0.0 mm 0.00 in0.0 mm 0.00 in0.0 mm
08:25 PM 50.3°F10.2°C 50.0°F10.0°C 99% 4.1 mph NW6.6 kmh NW 9.8 mph15.8 kmh 29.61 in1002.7 mb 0.00 in0.0 mm 0.00 in0.0 mm 0.00 in0.0 mm
08:30 PM 50.4°F10.2°C 50.1°F10.1°C 99% 1.5 mph N2.4 kmh N 7.4 mph11.9 kmh 29.62 in1003.0 mb 0.00 in0.0 mm 0.00 in0.0 mm 0.00 in0.0 mm
08:35 PM 50.4°F10.2°C 50.1°F10.1°C 99% 3.5 mph NW5.6 kmh NW 9.8 mph15.8 kmh 29.62 in1003.0 mb 0.00 in0.0 mm 0.00 in0.0 mm 0.00 in0.0 mm
08:40 PM 50.5°F10.3°C 50.2°F10.1°C 99% 3.0 mph N4.8 kmh N 7.4 mph11.9 kmh 29.62 in1003.0 mb 0.00 in0.0 mm 0.00 in0.0 mm 0.00 in0.0 mm
08:45 PM 50.5°F10.3°C 50.2°F10.1°C 99% 1.5 mph N2.4 kmh N 4.9 mph7.9 kmh 29.62 in1003.0 mb 0.00 in0.0 mm 0.00 in0.0 mm 0.00 in0.0 mm
08:50 PM 50.5°F10.3°C 50.2°F10.1°C 99% 2.0 mph NNW3.2 kmh NNW 7.4 mph11.9 kmh 29.62 in1003.0 mb 0.00 in0.0 mm 0.00 in0.0 mm 0.00 in0.0 mm
08:55 PM 50.5°F10.3°C 50.2°F10.1°C 99% 0.4 mph NW0.6 kmh NW 2.5 mph4.0 kmh 29.62 in1003.0 mb 0.00 in0.0 mm 0.00 in0.0 mm 0.00 in0.0 mm
09:00 PM 50.5°F10.3°C 50.2°F10.1°C 99% 2.1 mph NW3.4 kmh NW 4.9 mph7.9 kmh 29.62 in1003.0 mb 0.00 in0.0 mm 0.00 in0.0 mm 0.00 in0.0 mm
09:05 PM 50.5°F10.3°C 50.2°F10.1°C 99% 2.9 mph NNW4.7 kmh NNW 7.4 mph11.9 kmh 29.62 in1003.0 mb 0.00 in0.0 mm 0.00 in0.0 mm 0.00 in0.0 mm
09:10 PM 50.5°F10.3°C 50.2°F10.1°C 99% 2.1 mph NNW3.4 kmh NNW 4.9 mph7.9 kmh 29.62 in1003.0 mb 0.00 in0.0 mm 0.00 in0.0 mm 0.00 in0.0 mm
09:15 PM 50.5°F10.3°C 50.2°F10.1°C 99% 2.8 mph NNW4.5 kmh NNW 7.4 mph11.9 kmh 29.62 in1003.0 mb 0.00 in0.0 mm 0.00 in0.0 mm 0.00 in0.0 mm
09:20 PM 50.5°F10.3°C 50.2°F10.1°C 99% 1.7 mph NNW2.7 kmh NNW 9.8 mph15.8 kmh 29.62 in1003.0 mb 0.00 in0.0 mm 0.00 in0.0 mm 0.00 in0.0 mm
09:25 PM 50.5°F10.3°C 50.2°F10.1°C 99% 4.0 mph NNW6.4 kmh NNW 7.4 mph11.9 kmh 29.62 in1003.0 mb 0.00 in0.0 mm 0.00 in0.0 mm 0.00 in0.0 mm
09:30 PM 50.5°F10.3°C 50.2°F10.1°C 99% 3.9 mph N6.3 kmh N 7.4 mph11.9 kmh 29.63 in1003.4 mb 0.00 in0.0 mm 0.00 in0.0 mm 0.00 in0.0 mm
09:35 PM 50.5°F10.3°C 50.2°F10.1°C 99% 2.5 mph NW4.0 kmh NW 7.4 mph11.9 kmh 29.62 in1003.0 mb 0.00 in0.0 mm 0.00 in0.0 mm 0.00 in0.0 mm
09:40 PM 50.5°F10.3°C 50.2°F10.1°C 99% 2.0 mph N3.2 kmh N 7.4 mph11.9 kmh 29.62 in1003.0 mb 0.00 in0.0 mm 0.00 in0.0 mm 0.00 in0.0 mm
09:45 PM 50.5°F10.3°C 50.2°F10.1°C 99% 2.6 mph NW4.2 kmh NW 4.9 mph7.9 kmh 29.62 in1003.0 mb 0.00 in0.0 mm 0.00 in0.0 mm 0.00 in0.0 mm
09:50 PM 50.5°F10.3°C 50.2°F10.1°C 99% 2.2 mph NNW3.5 kmh NNW 7.4 mph11.9 kmh 29.63 in1003.4 mb 0.00 in0.0 mm 0.00 in0.0 mm 0.00 in0.0 mm
09:55 PM 50.5°F10.3°C 50.2°F10.1°C 99% 3.9 mph NW6.3 kmh NW 9.8 mph15.8 kmh 29.63 in1003.4 mb 0.00 in0.0 mm 0.00 in0.0 mm 0.00 in0.0 mm
10:00 PM 50.6°F10.3°C 50.3°F10.2°C 99% 2.9 mph NW4.7 kmh NW 7.4 mph11.9 kmh 29.63 in1003.4 mb 0.00 in0.0 mm 0.00 in0.0 mm 0.00 in0.0 mm
10:05 PM 50.7°F10.4°C 50.4°F10.2°C 99% 4.3 mph NNW6.9 kmh NNW 9.8 mph15.8 kmh 29.64 in1003.7 mb 0.00 in0.0 mm 0.00 in0.0 mm 0.00 in0.0 mm
10:10 PM 50.7°F10.4°C 50.4°F10.2°C 99% 5.4 mph NNW8.7 kmh NNW 15.0 mph24.1 kmh 29.63 in1003.4 mb 0.00 in0.0 mm 0.00 in0.0 mm 0.00 in0.0 mm
10:15 PM 50.7°F10.4°C 50.4°F10.2°C 99% 2.0 mph N3.2 kmh N 9.8 mph15.8 kmh 29.64 in1003.7 mb 0.00 in0.0 mm 0.00 in0.0 mm 0.00 in0.0 mm
10:20 PM 50.7°F10.4°C 50.4°F10.2°C 99% 5.8 mph N9.3 kmh N 9.8 mph15.8 kmh 29.63 in1003.4 mb 0.00 in0.0 mm 0.00 in0.0 mm 0.00 in0.0 mm
10:25 PM 50.7°F10.4°C 50.4°F10.2°C 99% 4.2 mph N6.8 kmh N 7.4 mph11.9 kmh 29.64 in1003.7 mb 0.00 in0.0 mm 0.00 in0.0 mm 0.00 in0.0 mm
10:30 PM 50.7°F10.4°C 50.4°F10.2°C 99% 3.0 mph NW4.8 kmh NW 7.4 mph11.9 kmh 29.64 in1003.7 mb 0.00 in0.0 mm 0.00 in0.0 mm 0.00 in0.0 mm
10:35 PM 50.7°F10.4°C 50.4°F10.2°C 99% 2.6 mph NW4.2 kmh NW 4.9 mph7.9 kmh 29.63 in1003.4 mb 0.00 in0.0 mm 0.00 in0.0 mm 0.00 in0.0 mm
10:40 PM 50.7°F10.4°C 50.4°F10.2°C 99% 2.7 mph NNW4.3 kmh NNW 7.4 mph11.9 kmh 29.64 in1003.7 mb 0.00 in0.0 mm 0.00 in0.0 mm 0.00 in0.0 mm
10:45 PM 50.7°F10.4°C 50.4°F10.2°C 99% 3.6 mph NW5.8 kmh NW 7.4 mph11.9 kmh 29.64 in1003.7 mb 0.00 in0.0 mm 0.00 in0.0 mm 0.00 in0.0 mm
10:50 PM 50.7°F10.4°C 50.4°F10.2°C 99% 3.2 mph NW5.1 kmh NW 4.9 mph7.9 kmh 29.64 in1003.7 mb 0.00 in0.0 mm 0.00 in0.0 mm 0.00 in0.0 mm
10:55 PM 50.8°F10.4°C 50.5°F10.3°C 99% 4.7 mph NNW7.6 kmh NNW 7.4 mph11.9 kmh 29.64 in1003.7 mb 0.00 in0.0 mm 0.00 in0.0 mm 0.00 in0.0 mm
11:00 PM 50.9°F10.5°C 50.6°F10.3°C 99% 0.9 mph N1.4 kmh N 2.5 mph4.0 kmh 29.65 in1004.1 mb 0.00 in0.0 mm 0.00 in0.0 mm 0.00 in0.0 mm
11:05 PM 50.9°F10.5°C 50.6°F10.3°C 99% 3.0 mph NW4.8 kmh NW 7.4 mph11.9 kmh 29.65 in1004.1 mb 0.00 in0.0 mm 0.00 in0.0 mm 0.00 in0.0 mm
11:10 PM 50.9°F10.5°C 50.6°F10.3°C 99% 2.5 mph NW4.0 kmh NW 4.9 mph7.9 kmh 29.65 in1004.1 mb 0.00 in0.0 mm 0.00 in0.0 mm 0.00 in0.0 mm
11:15 PM 51.1°F10.6°C 50.8°F10.4°C 99% 1.0 mph NW1.6 kmh NW 4.9 mph7.9 kmh 29.65 in1004.1 mb 0.00 in0.0 mm 0.00 in0.0 mm 0.00 in0.0 mm
11:20 PM 51.1°F10.6°C 50.8°F10.4°C 99% 3.1 mph NNW5.0 kmh NNW 7.4 mph11.9 kmh 29.65 in1004.1 mb 0.00 in0.0 mm 0.00 in0.0 mm 0.00 in0.0 mm
11:25 PM 51.1°F10.6°C 50.8°F10.4°C 99% 1.8 mph NNW2.9 kmh NNW 4.9 mph7.9 kmh 29.65 in1004.1 mb 0.00 in0.0 mm 0.00 in0.0 mm 0.00 in0.0 mm
11:30 PM 51.1°F10.6°C 50.8°F10.4°C 99% 1.9 mph NW3.1 kmh NW 4.9 mph7.9 kmh 29.64 in1003.7 mb 0.00 in0.0 mm 0.00 in0.0 mm 0.00 in0.0 mm
11:35 PM 51.1°F10.6°C 50.8°F10.4°C 99% 3.8 mph N6.1 kmh N 7.4 mph11.9 kmh 29.64 in1003.7 mb 0.00 in0.0 mm 0.00 in0.0 mm 0.00 in0.0 mm
11:40 PM 51.1°F10.6°C 50.8°F10.4°C 99% 4.4 mph NW7.1 kmh NW 7.4 mph11.9 kmh 29.64 in1003.7 mb 0.00 in0.0 mm 0.00 in0.0 mm 0.00 in0.0 mm
11:45 PM 51.1°F10.6°C 50.8°F10.4°C 99% 0.6 mph NNW1.0 kmh NNW 4.9 mph7.9 kmh 29.64 in1003.7 mb 0.00 in0.0 mm 0.00 in0.0 mm 0.00 in0.0 mm
11:50 PM 51.1°F10.6°C 50.8°F10.4°C 99% 1.4 mph N2.3 kmh N 4.9 mph7.9 kmh 29.64 in1003.7 mb 0.00 in0.0 mm 0.00 in0.0 mm 0.00 in0.0 mm
11:55 PM 51.1°F10.6°C 50.8°F10.4°C 99% 3.5 mph NNW5.6 kmh NNW 9.8 mph15.8 kmh 29.64 in1003.7 mb 0.00 in0.0 mm 0.00 in0.0 mm 0.00 in0.0 mm